createdAt,value
2022-08-25T00:00:50.523Z,5.70
2022-08-25T00:03:19.049Z,5.60
2022-08-25T00:05:48.841Z,6.10
2022-08-25T00:08:17.236Z,6.17
2022-08-25T00:10:45.639Z,8.20
2022-08-25T00:13:32.162Z,6.63
2022-08-25T00:16:01.204Z,5.87
2022-08-25T00:18:29.929Z,5.20
2022-08-25T00:20:59.698Z,6.03
2022-08-25T00:23:28.008Z,7.43
2022-08-25T00:25:56.298Z,5.47
2022-08-25T00:28:24.663Z,5.70
2022-08-25T00:30:53.229Z,5.43
2022-08-25T00:33:21.611Z,5.97
2022-08-25T00:35:50.301Z,6.80
2022-08-25T00:38:20.592Z,6.60
2022-08-25T00:41:05.744Z,6.27
2022-08-25T00:43:46.351Z,8.63
2022-08-25T00:46:18.095Z,6.87
2022-08-25T00:48:51.619Z,6.67
2022-08-25T00:51:29.402Z,5.70
2022-08-25T00:53:59.658Z,6.33
2022-08-25T00:56:28.907Z,6.40
2022-08-25T00:58:58.427Z,5.90
2022-08-25T01:01:28.048Z,5.70
2022-08-25T01:03:56.363Z,6.70
2022-08-25T01:06:25.979Z,6.70
2022-08-25T01:08:55.727Z,5.70
2022-08-25T01:11:25.490Z,6.23
2022-08-25T01:13:57.446Z,6.57
2022-08-25T01:16:27.435Z,8.33
2022-08-25T01:18:58.145Z,7.13
2022-08-25T01:21:30.921Z,8.63
2022-08-25T01:24:01.563Z,8.50
2022-08-25T01:26:32.959Z,9.97
2022-08-25T01:29:25.412Z,10.83
2022-08-25T01:31:58.029Z,8.33
2022-08-25T01:34:28.459Z,8.63
2022-08-25T01:37:00.614Z,8.00
2022-08-25T01:39:33.855Z,7.60
2022-08-25T01:42:25.858Z,8.50
2022-08-25T01:44:54.286Z,8.40
2022-08-25T01:47:22.871Z,8.67
2022-08-25T01:49:51.246Z,8.43
2022-08-25T01:52:30.474Z,9.00
2022-08-25T01:54:58.877Z,9.43
2022-08-25T01:57:27.181Z,7.77
2022-08-25T01:59:55.631Z,8.80
2022-08-25T02:02:24.050Z,8.80
2022-08-25T02:04:54.900Z,7.93
2022-08-25T02:07:24.833Z,7.90
2022-08-25T02:09:53.216Z,8.30
2022-08-25T02:12:22.046Z,9.00
2022-08-25T02:14:50.411Z,8.37
2022-08-25T02:17:18.783Z,8.97
2022-08-25T02:19:47.056Z,8.53
2022-08-25T02:22:15.351Z,7.97
2022-08-25T02:24:45.029Z,8.13
2022-08-25T02:27:13.297Z,8.73
2022-08-25T02:29:42.008Z,8.00
2022-08-25T02:32:11.982Z,7.30
2022-08-25T02:34:41.493Z,7.37
2022-08-25T02:37:09.988Z,7.13
2022-08-25T02:39:38.291Z,6.93
2022-08-25T02:42:08.587Z,7.00
2022-08-25T02:44:36.875Z,7.77
2022-08-25T02:47:05.860Z,7.67
2022-08-25T02:49:34.302Z,7.00
2022-08-25T02:52:02.702Z,7.53
2022-08-25T02:54:31.985Z,7.80
2022-08-25T02:57:00.286Z,10.67
2022-08-25T02:59:30.234Z,6.73
2022-08-25T03:01:58.697Z,7.83
2022-08-25T03:04:27.363Z,8.20
2022-08-25T03:06:55.865Z,8.20
2022-08-25T03:09:24.215Z,7.83
2022-08-25T03:11:52.570Z,8.00
2022-08-25T03:14:20.868Z,7.43
2022-08-25T03:16:50.720Z,8.03
2022-08-25T03:19:19.075Z,7.60
2022-08-25T03:21:47.424Z,7.43
2022-08-25T03:24:15.739Z,7.03
2022-08-25T03:26:55.988Z,7.80
2022-08-25T03:29:26.591Z,7.00
2022-08-25T03:31:58.970Z,7.17
2022-08-25T03:34:29.639Z,7.73
2022-08-25T03:36:59.026Z,7.50
2022-08-25T03:39:29.015Z,8.00
2022-08-25T03:41:57.373Z,9.03
2022-08-25T03:44:25.742Z,9.30
2022-08-25T03:46:55.456Z,8.57
2022-08-25T03:49:25.389Z,8.23
2022-08-25T03:51:55.916Z,7.47
2022-08-25T03:54:27.434Z,7.67
2022-08-25T03:56:55.792Z,8.37
2022-08-25T03:59:24.170Z,7.60
2022-08-25T04:01:55.112Z,8.40
2022-08-25T04:04:25.673Z,7.97
2022-08-25T04:06:54.228Z,8.83
2022-08-25T04:09:23.366Z,8.53
2022-08-25T04:11:53.340Z,9.43
2022-08-25T04:14:23.690Z,8.60
2022-08-25T04:16:53.045Z,7.33
2022-08-25T04:19:23.955Z,8.57
2022-08-25T04:21:56.527Z,8.80
2022-08-25T04:24:25.611Z,8.40
2022-08-25T04:26:54.177Z,8.70
2022-08-25T04:29:25.462Z,9.37
2022-08-25T04:31:55.970Z,8.70
2022-08-25T04:34:30.406Z,9.57
2022-08-25T04:37:01.536Z,8.73
2022-08-25T04:39:30.595Z,9.80
2022-08-25T04:42:00.563Z,7.67
2022-08-25T04:44:30.063Z,11.37
2022-08-25T04:46:58.819Z,12.00
2022-08-25T04:49:29.229Z,9.23
2022-08-25T04:51:57.882Z,7.93
2022-08-25T04:54:26.255Z,8.33
2022-08-25T04:56:58.787Z,8.77
2022-08-25T04:59:30.012Z,8.83
2022-08-25T05:02:02.317Z,8.73
2022-08-25T05:04:34.126Z,9.07
2022-08-25T05:07:03.427Z,9.07
2022-08-25T05:09:32.892Z,9.03
2022-08-25T05:12:02.367Z,9.03
2022-08-25T05:14:31.997Z,9.60
2022-08-25T05:17:00.391Z,8.90
2022-08-25T05:19:28.967Z,8.13
2022-08-25T05:21:58.678Z,9.03
2022-08-25T05:24:28.015Z,9.57
2022-08-25T05:26:56.989Z,8.30
2022-08-25T05:29:25.788Z,8.37
2022-08-25T05:31:54.445Z,10.40
2022-08-25T05:34:22.859Z,9.63
2022-08-25T05:36:51.579Z,8.97
2022-08-25T05:39:21.321Z,9.20
2022-08-25T05:41:49.644Z,11.87
2022-08-25T05:44:21.130Z,10.37
2022-08-25T05:46:51.244Z,9.50
2022-08-25T05:49:20.227Z,9.17
2022-08-25T05:51:48.659Z,8.67
2022-08-25T05:54:17.276Z,9.60
2022-08-25T05:56:46.998Z,9.37
2022-08-25T05:59:15.333Z,10.37
2022-08-25T06:02:01.707Z,11.37
2022-08-25T06:04:30.076Z,10.97
2022-08-25T06:06:58.430Z,10.27
2022-08-25T06:09:26.912Z,10.73
2022-08-25T06:11:56.589Z,11.10
2022-08-25T06:14:27.452Z,11.10
2022-08-25T06:16:56.920Z,13.53
2022-08-25T06:19:25.307Z,11.03
2022-08-25T06:21:56.273Z,10.83
2022-08-25T06:24:25.932Z,11.07
2022-08-25T06:26:56.671Z,10.83
2022-08-25T06:29:25.115Z,11.03
2022-08-25T06:31:53.778Z,9.63
2022-08-25T06:34:24.080Z,9.73
2022-08-25T06:36:53.047Z,10.87
2022-08-25T06:39:21.574Z,12.57
2022-08-25T06:41:53.954Z,25.67
2022-08-25T06:44:24.881Z,10.07
2022-08-25T06:46:53.225Z,10.40
2022-08-25T06:49:22.539Z,10.30
2022-08-25T06:51:51.348Z,10.07
2022-08-25T06:54:19.633Z,11.10
2022-08-25T06:56:49.623Z,10.53
2022-08-25T06:59:18.769Z,9.70
2022-08-25T07:01:50.251Z,10.77
2022-08-25T07:04:21.614Z,10.17
2022-08-25T07:06:49.958Z,11.83
2022-08-25T07:09:18.646Z,10.83
2022-08-25T07:11:47.400Z,12.17
2022-08-25T07:14:18.194Z,12.50
2022-08-25T07:16:50.224Z,10.20
2022-08-25T07:19:20.931Z,9.70
2022-08-25T07:21:54.142Z,10.57
2022-08-25T07:24:23.881Z,10.87
2022-08-25T07:26:53.128Z,9.70
2022-08-25T07:29:32.322Z,9.93
2022-08-25T07:32:02.824Z,10.87
2022-08-25T07:34:52.529Z,9.63
2022-08-25T07:37:47.176Z,13.23
2022-08-25T07:40:14.911Z,11.03
2022-08-25T07:42:43.512Z,11.10
2022-08-25T07:45:14.042Z,12.03
2022-08-25T07:47:47.041Z,10.77
2022-08-25T07:50:15.732Z,8.90
2022-08-25T07:52:44.075Z,10.23
2022-08-25T07:55:21.519Z,11.03
2022-08-25T07:57:55.590Z,11.23
2022-08-25T08:00:27.690Z,10.13
2022-08-25T08:02:58.820Z,9.48
2022-08-25T08:05:28.611Z,14.80
2022-08-25T08:07:57.439Z,10.10
2022-08-25T08:10:54.235Z,9.77
2022-08-25T08:13:18.466Z,10.50
2022-08-25T08:15:48.264Z,8.75
2022-08-25T08:18:18.318Z,10.52
2022-08-25T08:20:47.750Z,12.00
2022-08-25T08:23:17.940Z,14.30
2022-08-25T08:25:46.210Z,10.20
2022-08-25T08:28:14.551Z,11.45
2022-08-25T08:30:53.051Z,12.75
2022-08-25T08:33:25.473Z,11.02
2022-08-25T08:36:05.192Z,10.68
2022-08-25T08:38:34.827Z,13.75
2022-08-25T08:41:40.065Z,15.63
2022-08-25T08:44:32.400Z,12.98
2022-08-25T08:47:08.833Z,18.15
2022-08-25T08:49:51.568Z,15.20
2022-08-25T08:52:25.418Z,18.25
2022-08-25T08:55:05.632Z,15.35
2022-08-25T08:57:42.761Z,16.60
2022-08-25T09:00:13.931Z,21.67
2022-08-25T09:02:51.855Z,15.60
2022-08-25T09:05:25.753Z,18.58
2022-08-25T09:07:58.421Z,17.13
2022-08-25T09:10:35.675Z,16.80
2022-08-25T09:13:15.414Z,18.90
2022-08-25T09:16:10.287Z,17.83
2022-08-25T09:18:58.334Z,16.88
2022-08-25T09:21:35.900Z,13.95
2022-08-25T09:24:32.909Z,22.35
2022-08-25T09:27:13.863Z,14.45
2022-08-25T09:30:01.310Z,17.08
2022-08-25T09:32:41.076Z,21.83
2022-08-25T09:35:22.776Z,18.98
2022-08-25T09:38:00.308Z,21.48
2022-08-25T09:40:31.750Z,17.35
2022-08-25T09:43:03.288Z,19.10
2022-08-25T09:45:42.265Z,22.05
2022-08-25T09:48:29.082Z,17.60
2022-08-25T09:51:03.716Z,18.25
2022-08-25T09:53:35.551Z,21.52
2022-08-25T09:56:08.174Z,16.02
2022-08-25T09:58:36.950Z,17.02
2022-08-25T10:01:14.966Z,17.20
2022-08-25T10:04:04.902Z,22.45
2022-08-25T10:06:38.815Z,18.33
2022-08-25T10:09:09.968Z,18.77
2022-08-25T10:11:45.620Z,20.50
2022-08-25T10:14:29.671Z,17.08
2022-08-25T10:17:24.704Z,17.42
2022-08-25T10:20:17.178Z,24.30
2022-08-25T10:22:47.279Z,18.98
2022-08-25T10:25:28.352Z,16.17
2022-08-25T10:28:12.904Z,19.13
2022-08-25T10:30:58.718Z,18.95
2022-08-25T10:33:37.751Z,21.50
2022-08-25T10:36:22.994Z,21.15
2022-08-25T10:38:57.372Z,18.73
2022-08-25T10:41:53.575Z,20.45
2022-08-25T10:44:53.452Z,16.60
2022-08-25T10:47:54.046Z,20.65
2022-08-25T10:50:31.858Z,19.15
2022-08-25T10:53:20.730Z,20.17
2022-08-25T10:56:07.363Z,22.65
2022-08-25T10:59:04.778Z,17.83
2022-08-25T11:01:47.529Z,16.95
2022-08-25T11:04:26.195Z,15.50
2022-08-25T11:07:02.919Z,14.30
2022-08-25T11:09:39.229Z,19.23
2022-08-25T11:12:14.635Z,14.95
2022-08-25T11:14:51.883Z,18.88
2022-08-25T11:17:26.700Z,15.55
2022-08-25T11:20:02.114Z,16.85
2022-08-25T11:22:39.064Z,17.23
2022-08-25T11:25:16.355Z,15.15
2022-08-25T11:27:54.858Z,17.48
2022-08-25T11:30:25.892Z,16.50
2022-08-25T11:32:56.901Z,13.70
2022-08-25T11:35:30.745Z,17.75
2022-08-25T11:38:21.645Z,18.35
2022-08-25T11:41:11.294Z,14.68
2022-08-25T11:44:02.220Z,13.13
2022-08-25T11:46:48.911Z,11.73
2022-08-25T11:49:50.935Z,18.58
2022-08-25T11:52:51.065Z,13.88
2022-08-25T11:55:24.073Z,13.00
2022-08-25T11:57:55.092Z,14.32
2022-08-25T12:00:42.663Z,9.82
2022-08-25T12:03:52.024Z,11.90
2022-08-25T12:06:29.485Z,12.60
2022-08-25T12:09:22.913Z,12.35
2022-08-25T12:11:55.413Z,12.77
2022-08-25T12:14:45.647Z,14.48
2022-08-25T12:17:39.596Z,11.70
2022-08-25T12:20:09.955Z,15.18
2022-08-25T12:22:55.874Z,13.93
2022-08-25T12:25:46.168Z,14.00
2022-08-25T12:28:44.113Z,13.70
2022-08-25T12:31:26.806Z,7.57
2022-08-25T12:34:16.700Z,5.70
2022-08-25T12:37:00.692Z,9.82
2022-08-25T12:39:35.497Z,8.98
2022-08-25T12:42:15.350Z,8.73
2022-08-25T12:44:47.924Z,9.07
2022-08-25T12:47:33.907Z,7.35
2022-08-25T12:50:34.979Z,9.02
2022-08-25T12:53:13.894Z,7.68
2022-08-25T12:55:50.118Z,8.80
2022-08-25T12:58:18.793Z,12.65
2022-08-25T13:01:09.168Z,6.15
2022-08-25T13:04:20.437Z,9.68
2022-08-25T13:07:09.133Z,9.15
2022-08-25T13:10:28.785Z,10.88
2022-08-25T13:13:05.928Z,11.68
2022-08-25T13:15:39.743Z,9.02
2022-08-25T13:18:26.415Z,12.63
2022-08-25T13:21:04.613Z,8.93
2022-08-25T13:23:38.052Z,8.35
2022-08-25T13:26:08.063Z,14.80
2022-08-25T13:28:42.030Z,8.95
2022-08-25T13:31:19.063Z,10.35
2022-08-25T13:33:56.118Z,11.65
2022-08-25T13:36:47.125Z,10.52
2022-08-25T13:39:45.666Z,9.75
2022-08-25T13:42:18.003Z,15.15
2022-08-25T13:44:53.652Z,13.45
2022-08-25T13:47:43.669Z,13.02
2022-08-25T13:50:30.490Z,11.55
2022-08-25T13:53:02.787Z,9.35
2022-08-25T13:55:50.662Z,14.98
2022-08-25T13:58:39.033Z,12.43
2022-08-25T14:01:32.264Z,12.82
2022-08-25T14:04:32.523Z,11.75
2022-08-25T14:07:14.826Z,9.23
2022-08-25T14:09:51.747Z,9.07
2022-08-25T14:12:42.037Z,13.07
2022-08-25T14:15:32.496Z,10.18
2022-08-25T14:18:06.809Z,12.13
2022-08-25T14:20:38.086Z,13.85
2022-08-25T14:23:12.802Z,12.80
2022-08-25T14:25:44.939Z,14.55
2022-08-25T14:28:18.106Z,19.45
2022-08-25T14:30:51.930Z,17.40
2022-08-25T14:33:23.578Z,16.52
2022-08-25T14:35:55.603Z,11.52
2022-08-25T14:38:25.743Z,12.85
2022-08-25T14:40:54.693Z,12.35
2022-08-25T14:43:24.165Z,18.42
2022-08-25T14:46:05.031Z,17.08
2022-08-25T14:48:43.210Z,16.90
2022-08-25T14:51:14.838Z,18.17
2022-08-25T14:53:43.809Z,15.32
2022-08-25T14:56:12.365Z,14.63
2022-08-25T14:58:48.294Z,15.07
2022-08-25T15:01:29.344Z,10.93
2022-08-25T15:04:04.070Z,15.90
2022-08-25T15:06:33.467Z,16.65
2022-08-25T15:09:11.444Z,19.77
2022-08-25T15:11:44.396Z,13.10
2022-08-25T15:14:17.557Z,19.90
2022-08-25T15:16:51.397Z,15.40
2022-08-25T15:19:23.283Z,16.73
2022-08-25T15:21:52.793Z,13.30
2022-08-25T15:24:23.818Z,14.18
2022-08-25T15:26:57.096Z,15.73
2022-08-25T15:29:29.794Z,17.70
2022-08-25T15:32:01.105Z,17.17
2022-08-25T15:34:29.710Z,20.02
2022-08-25T15:36:59.250Z,13.23
2022-08-25T15:39:27.921Z,12.30
2022-08-25T15:41:57.210Z,17.48
2022-08-25T15:44:29.391Z,14.90
2022-08-25T15:47:00.595Z,21.30
2022-08-25T15:49:31.245Z,17.33
2022-08-25T15:52:00.320Z,17.27
2022-08-25T15:54:30.464Z,16.17
2022-08-25T15:56:59.752Z,13.18
2022-08-25T15:59:29.533Z,15.98
2022-08-25T16:01:59.553Z,14.68
2022-08-25T16:04:29.637Z,14.25
2022-08-25T16:06:58.809Z,20.90
2022-08-25T16:09:27.740Z,17.17
2022-08-25T16:12:04.046Z,16.65
2022-08-25T16:14:35.400Z,15.35
2022-08-25T16:17:05.834Z,16.13
2022-08-25T16:19:38.048Z,18.02
2022-08-25T16:22:09.016Z,14.05
2022-08-25T16:24:42.141Z,21.00
2022-08-25T16:27:12.133Z,16.67
2022-08-25T16:29:43.798Z,19.23
2022-08-25T16:32:16.119Z,19.42
2022-08-25T16:34:45.151Z,16.30
2022-08-25T16:37:16.031Z,15.98
2022-08-25T16:39:45.883Z,18.10
2022-08-25T16:42:15.115Z,11.93
2022-08-25T16:44:43.569Z,17.15
2022-08-25T16:47:17.537Z,16.98
2022-08-25T16:49:49.038Z,17.25
2022-08-25T16:52:35.263Z,14.95
2022-08-25T16:55:16.617Z,16.05
2022-08-25T16:57:48.292Z,13.70
2022-08-25T17:00:22.502Z,21.17
2022-08-25T17:02:59.501Z,17.95
2022-08-25T17:05:29.925Z,17.70
2022-08-25T17:08:18.777Z,14.32
2022-08-25T17:10:47.557Z,15.50
2022-08-25T17:13:16.206Z,14.00
2022-08-25T17:15:48.630Z,14.15
2022-08-25T17:18:22.440Z,13.70
2022-08-25T17:21:00.883Z,10.48
2022-08-25T17:23:33.161Z,18.85
2022-08-25T17:26:03.466Z,18.85
2022-08-25T17:28:33.704Z,16.85
2022-08-25T17:31:02.298Z,13.32
2022-08-25T17:33:32.237Z,21.90
2022-08-25T17:36:01.200Z,17.73
2022-08-25T17:38:33.349Z,18.08
2022-08-25T17:41:06.861Z,16.13
2022-08-25T17:43:39.469Z,17.38
2022-08-25T17:46:08.974Z,22.00
2022-08-25T17:48:43.649Z,13.45
2022-08-25T17:51:12.907Z,24.75
2022-08-25T17:53:44.994Z,10.23
2022-08-25T17:56:18.469Z,17.55
2022-08-25T17:58:47.301Z,14.23
2022-08-25T18:01:22.760Z,16.60
2022-08-25T18:03:53.587Z,19.57
2022-08-25T18:06:22.663Z,13.27
2022-08-25T18:08:54.490Z,20.30
2022-08-25T18:11:27.211Z,17.30
2022-08-25T18:13:56.561Z,12.83
2022-08-25T18:16:25.639Z,18.07
2022-08-25T18:18:57.163Z,13.17
2022-08-25T18:21:30.308Z,14.43
2022-08-25T18:24:00.211Z,14.70
2022-08-25T18:26:28.655Z,11.77
2022-08-25T18:28:57.030Z,16.13
2022-08-25T18:31:25.536Z,13.87
2022-08-25T18:33:55.550Z,13.17
2022-08-25T18:36:24.065Z,14.53
2022-08-25T18:39:13.593Z,12.23
2022-08-25T18:41:44.970Z,21.57
2022-08-25T18:44:15.657Z,12.83
2022-08-25T18:46:45.314Z,15.47
2022-08-25T18:49:17.302Z,12.37
2022-08-25T18:51:46.793Z,12.90
2022-08-25T18:54:23.273Z,16.13
2022-08-25T18:56:53.268Z,18.53
2022-08-25T18:59:23.286Z,19.63
2022-08-25T19:01:53.815Z,16.90
2022-08-25T19:04:31.453Z,18.50
2022-08-25T19:07:01.016Z,17.07
2022-08-25T19:09:30.630Z,14.30
2022-08-25T19:11:59.213Z,13.20
2022-08-25T19:14:28.128Z,17.07
2022-08-25T19:16:57.966Z,16.93
2022-08-25T19:19:27.844Z,12.97
2022-08-25T19:21:56.314Z,12.73
2022-08-25T19:24:24.810Z,14.33
2022-08-25T19:26:54.787Z,15.70
2022-08-25T19:29:24.333Z,13.87
2022-08-25T19:31:53.334Z,16.93
2022-08-25T19:34:30.428Z,14.63
2022-08-25T19:37:04.350Z,14.03
2022-08-25T19:39:33.931Z,13.57
2022-08-25T19:42:03.193Z,13.83
2022-08-25T19:44:31.942Z,17.90
2022-08-25T19:47:00.472Z,12.60
2022-08-25T19:49:34.491Z,18.20
2022-08-25T19:52:10.357Z,10.30
2022-08-25T19:54:44.210Z,13.63
2022-08-25T19:57:27.781Z,14.73
2022-08-25T19:59:57.496Z,13.30
2022-08-25T20:02:30.253Z,13.73
2022-08-25T20:05:00.769Z,14.33
2022-08-25T20:07:31.703Z,15.47
2022-08-25T20:10:01.935Z,9.53
2022-08-25T20:12:31.239Z,12.40
2022-08-25T20:15:00.381Z,11.70
2022-08-25T20:17:29.355Z,11.23
2022-08-25T20:20:04.568Z,12.27
2022-08-25T20:22:35.187Z,11.30
2022-08-25T20:25:07.678Z,13.97
2022-08-25T20:27:45.222Z,13.90
2022-08-25T20:30:18.272Z,12.77
2022-08-25T20:32:47.230Z,13.43
2022-08-25T20:35:17.755Z,12.73
2022-08-25T20:37:48.636Z,9.97
2022-08-25T20:40:25.405Z,12.50
2022-08-25T20:42:54.883Z,13.07
2022-08-25T20:45:23.841Z,11.53
2022-08-25T20:47:53.041Z,16.03
2022-08-25T20:50:24.087Z,17.23
2022-08-25T20:52:56.643Z,15.20
2022-08-25T20:55:27.763Z,13.17
2022-08-25T20:57:56.980Z,18.30
2022-08-25T21:00:25.655Z,11.10
2022-08-25T21:02:55.069Z,14.13
2022-08-25T21:05:25.124Z,12.33
2022-08-25T21:07:53.579Z,15.07
2022-08-25T21:10:22.320Z,8.73
2022-08-25T21:12:53.348Z,12.53
2022-08-25T21:15:22.102Z,9.23
2022-08-25T21:17:53.171Z,11.47
2022-08-25T21:20:25.808Z,9.63
2022-08-25T21:22:54.793Z,10.90
2022-08-25T21:25:23.564Z,11.03
2022-08-25T21:27:51.922Z,10.43
2022-08-25T21:30:20.462Z,12.80
2022-08-25T21:32:53.224Z,12.70
2022-08-25T21:35:24.796Z,9.87
2022-08-25T21:37:53.822Z,10.43
2022-08-25T21:40:23.296Z,10.27
2022-08-25T21:42:52.046Z,12.30
2022-08-25T21:45:21.830Z,9.90
2022-08-25T21:47:51.948Z,12.30
2022-08-25T21:50:22.217Z,8.17
2022-08-25T21:52:54.684Z,9.83
2022-08-25T21:55:23.429Z,11.37
2022-08-25T21:57:52.593Z,13.13
2022-08-25T22:00:22.320Z,12.37
2022-08-25T22:02:51.426Z,9.20
2022-08-25T22:05:19.977Z,11.13
2022-08-25T22:07:48.532Z,9.70
2022-08-25T22:10:19.069Z,10.03
2022-08-25T22:12:47.814Z,9.90
2022-08-25T22:15:17.757Z,11.60
2022-08-25T22:17:48.017Z,10.40
2022-08-25T22:20:17.634Z,9.37
2022-08-25T22:22:45.921Z,12.20
2022-08-25T22:25:14.627Z,10.00
2022-08-25T22:27:44.509Z,11.03
2022-08-25T22:30:14.738Z,9.60
2022-08-25T22:32:45.420Z,10.37
2022-08-25T22:35:14.281Z,8.53
2022-08-25T22:37:43.128Z,12.07
2022-08-25T22:40:13.356Z,9.70
2022-08-25T22:42:47.912Z,11.63
2022-08-25T22:45:16.785Z,11.03
2022-08-25T22:47:45.376Z,9.77
2022-08-25T22:50:14.694Z,8.47
2022-08-25T22:52:45.695Z,12.73
2022-08-25T22:55:14.305Z,11.40
2022-08-25T22:57:46.643Z,8.90
2022-08-25T23:00:17.044Z,9.83
2022-08-25T23:02:46.347Z,12.13
2022-08-25T23:05:17.003Z,8.70
2022-08-25T23:07:45.451Z,10.00
2022-08-25T23:10:15.464Z,9.83
2022-08-25T23:12:45.161Z,11.90
2022-08-25T23:15:14.367Z,8.90
2022-08-25T23:17:42.722Z,8.93
2022-08-25T23:20:25.767Z,11.50
2022-08-25T23:22:54.452Z,10.60
2022-08-25T23:25:22.891Z,10.20
2022-08-25T23:27:53.196Z,10.57
2022-08-25T23:30:21.675Z,10.67
2022-08-25T23:32:50.097Z,15.83
2022-08-25T23:35:19.387Z,8.97
2022-08-25T23:37:48.509Z,8.77
2022-08-25T23:40:19.431Z,10.03
2022-08-25T23:42:48.241Z,9.13
2022-08-25T23:45:18.545Z,11.90
2022-08-25T23:47:46.980Z,10.33
2022-08-25T23:50:18.126Z,11.43
2022-08-25T23:52:46.585Z,9.77
2022-08-25T23:55:14.942Z,10.10
2022-08-25T23:57:44.072Z,10.57
